createdAt,value
2022-11-01T00:00:42.484Z,44.28
2022-11-01T00:03:29.365Z,41.08
2022-11-01T00:06:16.308Z,38.17
2022-11-01T00:09:04.092Z,46.35
2022-11-01T00:11:51.383Z,42.47
2022-11-01T00:14:38.443Z,41.65
2022-11-01T00:17:27.260Z,39.50
2022-11-01T00:20:14.563Z,45.60
2022-11-01T00:23:01.671Z,44.80
2022-11-01T00:25:49.445Z,41.83
2022-11-01T00:28:36.843Z,40.53
2022-11-01T00:31:24.913Z,40.47
2022-11-01T00:34:13.229Z,43.63
2022-11-01T00:36:59.981Z,45.92
2022-11-01T00:39:47.236Z,39.92
2022-11-01T00:42:33.948Z,41.10
2022-11-01T00:45:21.315Z,34.55
2022-11-01T00:48:08.633Z,35.97
2022-11-01T00:50:57.189Z,33.70
2022-11-01T00:53:44.396Z,35.65
2022-11-01T00:56:31.837Z,39.45
2022-11-01T00:59:19.186Z,36.80
2022-11-01T01:02:06.114Z,37.33
2022-11-01T01:04:53.281Z,34.15
2022-11-01T01:07:42.129Z,33.35
2022-11-01T01:10:28.978Z,34.95
2022-11-01T01:13:16.567Z,37.50
2022-11-01T01:16:09.265Z,35.08
2022-11-01T01:18:56.673Z,34.42
2022-11-01T01:21:43.813Z,35.70
2022-11-01T01:24:32.797Z,33.70
2022-11-01T01:27:19.993Z,33.08
2022-11-01T01:30:08.564Z,37.28
2022-11-01T01:32:56.032Z,30.77
2022-11-01T01:35:43.345Z,33.83
2022-11-01T01:38:30.281Z,32.65
2022-11-01T01:41:35.796Z,30.10
2022-11-01T01:45:05.433Z,31.02
2022-11-01T01:47:54.983Z,27.65
2022-11-01T01:50:47.264Z,30.23
2022-11-01T01:53:37.933Z,31.65
2022-11-01T01:56:32.645Z,31.75
2022-11-01T01:59:19.804Z,29.80
2022-11-01T02:02:07.263Z,29.65
2022-11-01T02:04:58.490Z,28.83
2022-11-01T02:07:46.275Z,26.40
2022-11-01T02:10:34.259Z,29.63
2022-11-01T02:13:22.769Z,24.23
2022-11-01T02:16:34.564Z,28.20
2022-11-01T02:20:05.602Z,24.42
2022-11-01T02:23:27.052Z,28.30
2022-11-01T02:26:45.584Z,26.85
2022-11-01T02:30:04.440Z,29.38
2022-11-01T02:33:09.882Z,28.33
2022-11-01T02:36:03.036Z,35.95
2022-11-01T02:38:56.574Z,32.03
2022-11-01T02:41:50.235Z,35.65
2022-11-01T02:44:42.926Z,30.63
2022-11-01T02:47:32.736Z,28.52
2022-11-01T02:50:21.960Z,33.15
2022-11-01T02:53:09.475Z,29.63
2022-11-01T02:55:56.542Z,32.17
2022-11-01T02:58:44.371Z,33.05
2022-11-01T03:01:34.471Z,35.35
2022-11-01T03:04:21.834Z,32.95
2022-11-01T03:07:14.017Z,30.67
2022-11-01T03:10:01.717Z,33.30
2022-11-01T03:12:56.486Z,32.50
2022-11-01T03:15:53.704Z,30.95
2022-11-01T03:18:48.042Z,29.10
2022-11-01T03:21:41.320Z,24.25
2022-11-01T03:24:32.623Z,21.67
2022-11-01T03:27:27.482Z,26.83
2022-11-01T03:30:15.869Z,23.77
2022-11-01T03:33:03.180Z,23.20
2022-11-01T03:35:52.498Z,25.13
2022-11-01T03:38:43.746Z,26.35
2022-11-01T03:41:37.063Z,27.85
2022-11-01T03:44:24.609Z,29.27
2022-11-01T03:47:12.839Z,33.10
2022-11-01T03:50:16.796Z,29.27
2022-11-01T03:53:04.104Z,26.95
2022-11-01T03:55:51.671Z,25.55
2022-11-01T03:58:44.036Z,23.35
2022-11-01T04:01:31.131Z,24.35
2022-11-01T04:04:18.366Z,27.65
2022-11-01T04:07:05.339Z,27.42
2022-11-01T04:09:52.517Z,25.23
2022-11-01T04:12:40.262Z,30.75
2022-11-01T04:15:46.721Z,31.15
2022-11-01T04:18:51.212Z,29.88
2022-11-01T04:21:38.561Z,30.30
2022-11-01T04:24:25.718Z,25.92
2022-11-01T04:27:12.954Z,27.55
2022-11-01T04:30:00.104Z,30.45
2022-11-01T04:32:48.495Z,20.73
2022-11-01T04:35:37.241Z,23.30
2022-11-01T04:38:24.664Z,26.00
2022-11-01T04:41:12.079Z,30.75
2022-11-01T04:44:00.300Z,35.00
2022-11-01T04:46:47.239Z,32.20
2022-11-01T04:49:35.996Z,33.95
2022-11-01T04:52:23.464Z,34.88
2022-11-01T04:55:10.742Z,33.90
2022-11-01T04:57:58.308Z,43.15
2022-11-01T05:00:45.972Z,38.22
2022-11-01T05:03:33.853Z,35.88
2022-11-01T05:06:22.221Z,35.47
2022-11-01T05:09:09.468Z,35.63
2022-11-01T05:11:56.064Z,34.80
2022-11-01T05:14:43.404Z,35.03
2022-11-01T05:17:30.735Z,34.50
2022-11-01T05:20:17.667Z,30.33
2022-11-01T05:23:06.856Z,31.45
2022-11-01T05:25:54.045Z,31.98
2022-11-01T05:28:41.344Z,34.25
2022-11-01T05:31:28.673Z,32.88
2022-11-01T05:34:15.892Z,33.03
2022-11-01T05:37:03.139Z,29.65
2022-11-01T05:39:51.679Z,30.67
2022-11-01T05:42:39.847Z,30.02
2022-11-01T05:45:27.025Z,28.35
2022-11-01T05:48:13.959Z,32.75
2022-11-01T05:51:01.074Z,32.92
2022-11-01T05:53:49.856Z,34.28
2022-11-01T05:56:38.391Z,29.58
2022-11-01T05:59:25.675Z,29.33
2022-11-01T06:02:12.526Z,31.30
2022-11-01T06:05:02.851Z,29.52
2022-11-01T06:07:50.311Z,27.67
2022-11-01T06:10:37.605Z,28.45
2022-11-01T06:13:26.261Z,31.83
2022-11-01T06:16:13.645Z,29.23
2022-11-01T06:19:00.296Z,28.42
2022-11-01T06:21:47.645Z,30.90
2022-11-01T06:24:35.390Z,32.22
2022-11-01T06:27:22.546Z,36.47
2022-11-01T06:30:12.605Z,35.40
2022-11-01T06:33:01.564Z,33.50
2022-11-01T06:35:49.262Z,32.88
2022-11-01T06:38:37.095Z,34.53
2022-11-01T06:41:24.126Z,39.15
2022-11-01T06:44:11.135Z,31.00
2022-11-01T06:46:59.533Z,34.92
2022-11-01T06:49:46.087Z,34.22
2022-11-01T06:52:32.920Z,29.17
2022-11-01T06:55:20.180Z,31.13
2022-11-01T06:58:07.157Z,31.52
2022-11-01T07:00:54.312Z,29.13
2022-11-01T07:03:42.726Z,31.95
2022-11-01T07:06:30.931Z,31.98
2022-11-01T07:09:18.043Z,29.27
2022-11-01T07:12:04.916Z,33.83
2022-11-01T07:14:51.938Z,31.58
2022-11-01T07:17:39.183Z,29.48
2022-11-01T07:20:29.053Z,25.73
2022-11-01T07:23:17.622Z,27.27
2022-11-01T07:26:04.729Z,28.58
2022-11-01T07:28:51.805Z,27.75
2022-11-01T07:31:39.712Z,32.63
2022-11-01T07:34:26.724Z,26.45
2022-11-01T07:37:15.079Z,29.00
2022-11-01T07:40:03.228Z,29.10
2022-11-01T07:42:50.545Z,28.17
2022-11-01T07:45:37.847Z,31.98
2022-11-01T07:48:24.796Z,32.83
2022-11-01T07:51:11.957Z,29.73
2022-11-01T07:56:53.011Z,28.17
2022-11-01T07:59:40.110Z,29.63
2022-11-01T08:02:26.789Z,34.53
2022-11-01T08:05:13.889Z,25.08
2022-11-01T08:08:01.381Z,26.88
2022-11-01T08:10:50.347Z,23.75
2022-11-01T08:13:37.509Z,23.73
2022-11-01T08:16:24.420Z,22.63
2022-11-01T08:19:11.898Z,22.85
2022-11-01T08:21:59.511Z,24.98
2022-11-01T08:24:46.945Z,23.17
2022-11-01T08:27:35.659Z,21.65
2022-11-01T08:30:22.846Z,20.35
2022-11-01T08:33:10.622Z,20.92
2022-11-01T08:35:57.737Z,20.77
2022-11-01T08:38:45.184Z,20.02
2022-11-01T08:41:35.421Z,18.50
2022-11-01T08:44:25.952Z,15.40
2022-11-01T08:47:13.113Z,18.00
2022-11-01T08:50:00.429Z,18.48
2022-11-01T08:52:47.675Z,19.33
2022-11-01T08:55:37.886Z,17.13
2022-11-01T08:58:25.936Z,20.15
2022-11-01T09:01:14.695Z,15.70
2022-11-01T09:04:02.732Z,15.75
2022-11-01T09:06:50.225Z,11.70
2022-11-01T09:09:37.538Z,15.57
2022-11-01T09:12:25.131Z,14.68
2022-11-01T09:15:12.442Z,15.35
2022-11-01T09:18:06.089Z,14.13
2022-11-01T09:20:54.953Z,14.77
2022-11-01T09:23:42.234Z,15.80
2022-11-01T09:26:29.354Z,14.90
2022-11-01T09:29:18.820Z,14.80
2022-11-01T09:32:07.596Z,15.60
2022-11-01T09:34:55.889Z,13.13
2022-11-01T09:37:42.975Z,14.50
2022-11-01T09:40:35.959Z,12.77
2022-11-01T09:43:26.614Z,12.77
2022-11-01T09:46:17.465Z,14.07
2022-11-01T09:49:08.721Z,12.38
2022-11-01T09:51:57.291Z,12.38
2022-11-01T09:54:44.109Z,11.48
2022-11-01T09:57:36.294Z,10.95
2022-11-01T10:00:23.460Z,13.68
2022-11-01T10:03:24.947Z,11.60
2022-11-01T10:06:16.915Z,13.68
2022-11-01T10:09:16.871Z,13.13
2022-11-01T10:12:16.771Z,12.70
2022-11-01T10:15:17.152Z,11.27
2022-11-01T10:18:18.553Z,10.48
2022-11-01T10:21:11.033Z,11.25
2022-11-01T10:24:01.607Z,13.98
2022-11-01T10:26:56.863Z,12.75
2022-11-01T10:29:49.307Z,11.55
2022-11-01T10:32:41.668Z,9.68
2022-11-01T10:35:31.590Z,14.48
2022-11-01T10:38:35.217Z,13.80
2022-11-01T10:41:37.962Z,11.75
2022-11-01T10:44:29.739Z,12.57
2022-11-01T10:47:19.062Z,12.70
2022-11-01T10:50:14.303Z,11.75
2022-11-01T10:53:03.877Z,12.07
2022-11-01T10:55:54.114Z,10.63
2022-11-01T10:58:46.693Z,9.90
2022-11-01T11:01:42.454Z,13.57
2022-11-01T11:04:29.930Z,11.45
2022-11-01T11:07:21.432Z,8.10
2022-11-01T11:10:22.757Z,7.53
2022-11-01T11:13:11.634Z,5.88
2022-11-01T11:16:02.212Z,7.57
2022-11-01T11:19:03.414Z,7.95
2022-11-01T11:21:53.195Z,8.52
2022-11-01T11:24:42.357Z,8.85
2022-11-01T11:27:32.777Z,7.07
2022-11-01T11:30:29.232Z,8.43
2022-11-01T11:33:19.098Z,6.65
2022-11-01T11:36:08.707Z,6.15
2022-11-01T11:38:57.005Z,8.07
2022-11-01T11:41:47.135Z,6.35
2022-11-01T11:44:41.938Z,8.80
2022-11-01T11:47:35.793Z,12.65
2022-11-01T11:50:35.035Z,10.35
2022-11-01T11:53:24.492Z,6.50
2022-11-01T11:56:13.132Z,5.97
2022-11-01T11:59:08.370Z,6.35
2022-11-01T12:02:00.112Z,7.32
2022-11-01T12:04:53.988Z,6.35
2022-11-01T12:07:48.791Z,7.47
2022-11-01T12:10:39.653Z,4.93
2022-11-01T12:13:31.116Z,4.53
2022-11-01T12:16:21.586Z,7.03
2022-11-01T12:19:24.550Z,6.13
2022-11-01T12:22:13.117Z,9.05
2022-11-01T12:25:05.091Z,7.20
2022-11-01T12:28:02.771Z,6.18
2022-11-01T12:30:53.185Z,7.22
2022-11-01T12:33:46.581Z,4.85
2022-11-01T12:36:42.809Z,9.27
2022-11-01T12:39:43.988Z,6.18
2022-11-01T12:42:35.375Z,6.72
2022-11-01T12:45:29.073Z,7.45
2022-11-01T12:48:23.535Z,8.38
2022-11-01T12:51:17.560Z,5.03
2022-11-01T12:54:13.016Z,6.20
2022-11-01T12:57:02.048Z,4.80
2022-11-01T12:59:49.383Z,6.80
2022-11-01T13:03:00.745Z,7.05
2022-11-01T13:05:52.870Z,7.22
2022-11-01T13:08:53.199Z,6.85
2022-11-01T13:11:49.671Z,9.13
2022-11-01T13:14:55.989Z,7.25
2022-11-01T13:17:52.411Z,8.93
2022-11-01T13:20:48.422Z,4.78
2022-11-01T13:23:39.125Z,7.45
2022-11-01T13:26:31.590Z,7.90
2022-11-01T13:29:23.660Z,5.65
2022-11-01T13:32:16.181Z,6.35
2022-11-01T13:35:26.664Z,10.93
2022-11-01T13:38:25.747Z,7.55
2022-11-01T13:41:22.476Z,6.55
2022-11-01T13:44:16.817Z,7.00
2022-11-01T13:47:33.547Z,12.05
2022-11-01T13:50:45.582Z,5.00
2022-11-01T13:53:35.768Z,6.45
2022-11-01T13:56:29.870Z,4.88
2022-11-01T13:59:32.092Z,7.07
2022-11-01T14:03:01.159Z,4.85
2022-11-01T14:06:24.794Z,5.18
2022-11-01T14:09:30.948Z,5.80
2022-11-01T14:12:46.649Z,4.68
2022-11-01T14:15:39.706Z,4.53
2022-11-01T14:18:27.446Z,5.10
2022-11-01T14:21:31.949Z,4.45
2022-11-01T14:24:23.617Z,5.13
2022-11-01T14:27:24.343Z,6.07
2022-11-01T14:30:15.467Z,5.85
2022-11-01T14:33:04.637Z,5.68
2022-11-01T14:35:55.381Z,6.03
2022-11-01T14:38:50.680Z,7.47
2022-11-01T14:41:40.972Z,7.68
2022-11-01T14:44:32.712Z,8.07
2022-11-01T14:47:29.061Z,4.07
2022-11-01T14:50:23.815Z,6.60
2022-11-01T14:53:20.416Z,5.75
2022-11-01T14:56:17.398Z,4.25
2022-11-01T14:59:15.008Z,5.25
2022-11-01T15:02:05.201Z,6.35
2022-11-01T15:04:57.473Z,4.40
2022-11-01T15:07:51.299Z,6.55
2022-11-01T15:10:42.251Z,5.07
2022-11-01T15:13:32.320Z,4.47
2022-11-01T15:16:23.085Z,7.03
2022-11-01T15:19:15.885Z,5.72
2022-11-01T15:22:05.900Z,8.18
2022-11-01T15:24:57.881Z,7.10
2022-11-01T15:27:47.900Z,5.78
2022-11-01T15:30:36.686Z,9.23
2022-11-01T15:33:25.819Z,5.50
2022-11-01T15:36:23.335Z,5.15
2022-11-01T15:39:19.469Z,5.07
2022-11-01T15:42:15.691Z,8.10
2022-11-01T15:45:19.777Z,6.40
2022-11-01T15:48:11.943Z,6.55
2022-11-01T15:51:02.793Z,5.80
2022-11-01T15:53:53.821Z,6.72
2022-11-01T15:56:43.761Z,5.50
2022-11-01T15:59:36.387Z,8.70
2022-11-01T16:02:27.902Z,8.25
2022-11-01T16:05:20.333Z,4.80
2022-11-01T16:08:09.777Z,5.18
2022-11-01T16:10:57.196Z,7.70
2022-11-01T16:13:49.371Z,5.90
2022-11-01T16:16:56.137Z,6.22
2022-11-01T16:19:48.092Z,5.40
2022-11-01T16:22:39.169Z,7.50
2022-11-01T16:25:27.448Z,6.22
2022-11-01T16:28:32.966Z,10.55
2022-11-01T16:31:22.651Z,5.65
2022-11-01T16:34:24.510Z,15.13
2022-11-01T16:37:21.130Z,8.15
2022-11-01T16:43:01.323Z,7.03
2022-11-01T16:45:48.784Z,5.85
2022-11-01T16:48:48.903Z,7.72
2022-11-01T16:51:36.161Z,8.20
2022-11-01T16:54:23.093Z,7.28
2022-11-01T16:57:21.812Z,12.00
2022-11-01T17:00:14.781Z,5.70
2022-11-01T17:03:02.878Z,11.15
2022-11-01T17:05:55.944Z,5.97
2022-11-01T17:08:43.484Z,6.88
2022-11-01T17:11:30.692Z,6.07
2022-11-01T17:14:18.890Z,6.30
2022-11-01T17:17:13.972Z,10.05
2022-11-01T17:20:04.021Z,6.65
2022-11-01T17:22:53.332Z,6.88
2022-11-01T17:25:40.424Z,7.10
2022-11-01T17:28:27.655Z,9.18
2022-11-01T17:31:15.069Z,5.88
2022-11-01T17:34:03.299Z,7.55
2022-11-01T17:36:51.335Z,7.85
2022-11-01T17:39:38.353Z,10.57
2022-11-01T17:42:25.687Z,7.80
2022-11-01T17:45:13.366Z,10.52
2022-11-01T17:48:00.811Z,10.02
2022-11-01T17:50:49.141Z,7.65
2022-11-01T17:53:39.224Z,9.68
2022-11-01T17:56:26.232Z,10.50
2022-11-01T17:59:13.370Z,11.32
2022-11-01T18:02:00.835Z,10.70
2022-11-01T18:04:47.862Z,7.65
2022-11-01T18:07:39.484Z,9.15
2022-11-01T18:10:37.139Z,7.03
2022-11-01T18:13:38.622Z,7.30
2022-11-01T18:16:29.780Z,12.48
2022-11-01T18:19:39.139Z,12.02
2022-11-01T18:22:32.869Z,11.27
2022-11-01T18:25:29.239Z,9.43
2022-11-01T18:28:18.904Z,9.50
2022-11-01T18:31:14.853Z,11.32
2022-11-01T18:34:07.745Z,7.18
2022-11-01T18:37:02.613Z,9.35
2022-11-01T18:39:58.858Z,10.35
2022-11-01T18:42:48.208Z,11.20
2022-11-01T18:45:57.694Z,8.50
2022-11-01T18:48:45.658Z,8.20
2022-11-01T18:51:34.689Z,7.85
2022-11-01T18:54:26.017Z,7.70
2022-11-01T18:57:17.220Z,7.68
2022-11-01T19:00:13.730Z,7.47
2022-11-01T19:03:02.648Z,6.88
2022-11-01T19:05:49.869Z,6.45
2022-11-01T19:08:38.292Z,11.30
2022-11-01T19:11:27.768Z,9.35
2022-11-01T19:14:21.733Z,10.90
2022-11-01T19:17:19.641Z,11.02
2022-11-01T19:20:21.261Z,9.73
2022-11-01T19:23:16.013Z,7.13
2022-11-01T19:26:03.844Z,11.60
2022-11-01T19:28:52.554Z,16.92
2022-11-01T19:31:40.581Z,16.45
2022-11-01T19:34:32.608Z,18.08
2022-11-01T19:37:24.999Z,12.25
2022-11-01T19:40:27.500Z,10.23
2022-11-01T19:43:17.814Z,7.53
2022-11-01T19:46:04.979Z,8.98
2022-11-01T19:48:53.077Z,7.47
2022-11-01T19:51:41.535Z,6.95
2022-11-01T19:54:35.230Z,8.05
2022-11-01T19:57:30.824Z,7.80
2022-11-01T20:00:20.690Z,7.05
2022-11-01T20:03:24.031Z,9.63
2022-11-01T20:06:16.222Z,7.13
2022-11-01T20:09:07.117Z,6.93
2022-11-01T20:11:54.953Z,6.97
2022-11-01T20:14:42.320Z,7.63
2022-11-01T20:17:29.788Z,7.30
2022-11-01T20:20:17.664Z,6.38
2022-11-01T20:23:25.147Z,7.93
2022-11-01T20:26:13.186Z,7.80
2022-11-01T20:29:00.520Z,7.63
2022-11-01T20:31:48.358Z,7.97
2022-11-01T20:34:35.373Z,7.07
2022-11-01T20:37:28.587Z,8.60
2022-11-01T20:40:17.131Z,7.80
2022-11-01T20:43:07.181Z,7.85
2022-11-01T20:45:54.492Z,5.80
2022-11-01T20:48:41.831Z,8.10
2022-11-01T20:51:29.645Z,7.47
2022-11-01T20:54:18.116Z,8.80
2022-11-01T20:57:05.423Z,8.65
2022-11-01T20:59:53.965Z,9.83
2022-11-01T21:02:41.420Z,7.27
2022-11-01T21:05:30.267Z,5.73
2022-11-01T21:08:22.608Z,5.53
2022-11-01T21:11:15.668Z,6.60
2022-11-01T21:14:03.147Z,6.37
2022-11-01T21:16:52.769Z,6.27
2022-11-01T21:19:39.756Z,5.93
2022-11-01T21:22:27.057Z,8.40
2022-11-01T21:25:19.954Z,10.17
2022-11-01T21:28:17.568Z,6.80
2022-11-01T21:31:21.552Z,6.97
2022-11-01T21:34:25.324Z,6.57
2022-11-01T21:37:13.054Z,9.33
2022-11-01T21:40:06.662Z,9.40
2022-11-01T21:42:57.184Z,8.23
2022-11-01T21:45:47.383Z,9.93
2022-11-01T21:48:34.599Z,5.80
2022-11-01T21:51:23.265Z,6.63
2022-11-01T21:54:10.624Z,8.10
2022-11-01T21:56:58.629Z,7.40
2022-11-01T21:59:46.165Z,6.83
2022-11-01T22:02:33.390Z,10.83
2022-11-01T22:05:20.520Z,7.75
2022-11-01T22:08:09.130Z,6.77
2022-11-01T22:10:56.369Z,6.67
2022-11-01T22:13:43.224Z,9.20
2022-11-01T22:16:30.790Z,7.27
2022-11-01T22:19:17.723Z,7.83
2022-11-01T22:22:04.898Z,8.33
2022-11-01T22:24:53.554Z,7.07
2022-11-01T22:27:40.987Z,8.37
2022-11-01T22:30:28.388Z,9.43
2022-11-01T22:33:15.564Z,7.63
2022-11-01T22:36:03.236Z,5.93
2022-11-01T22:38:50.576Z,8.77
2022-11-01T22:41:40.876Z,8.43
2022-11-01T22:44:31.145Z,6.33
2022-11-01T22:47:25.453Z,5.67
2022-11-01T22:50:15.219Z,7.47
2022-11-01T22:53:02.784Z,7.33
2022-11-01T22:55:53.795Z,5.60
2022-11-01T22:58:42.224Z,7.10
2022-11-01T23:01:30.678Z,5.63
2022-11-01T23:04:23.509Z,6.40
2022-11-01T23:07:23.700Z,5.50
2022-11-01T23:10:26.180Z,7.37
2022-11-01T23:13:37.391Z,6.33
2022-11-01T23:16:29.454Z,5.40
2022-11-01T23:19:16.825Z,6.07
2022-11-01T23:22:03.742Z,16.07
2022-11-01T23:24:52.912Z,8.43
2022-11-01T23:27:42.670Z,7.83
2022-11-01T23:30:29.440Z,5.20
2022-11-01T23:33:20.008Z,5.80
2022-11-01T23:36:15.105Z,5.27
2022-11-01T23:39:05.037Z,5.60
2022-11-01T23:41:54.057Z,5.37
2022-11-01T23:44:41.997Z,4.93
2022-11-01T23:47:36.227Z,6.07
2022-11-01T23:50:29.103Z,8.50
2022-11-01T23:53:18.189Z,5.50
2022-11-01T23:56:09.173Z,7.83
2022-11-01T23:59:00.148Z,5.30
